createdAt,value
2022-09-17T00:02:07.605Z,11.16
2022-09-17T00:05:11.181Z,11.16
2022-09-17T00:08:16.028Z,11.24
2022-09-17T00:11:21.789Z,11.26
2022-09-17T00:14:24.484Z,11.40
2022-09-17T00:17:28.954Z,11.46
2022-09-17T00:20:31.726Z,11.55
2022-09-17T00:23:34.791Z,11.60
2022-09-17T00:26:37.875Z,11.63
2022-09-17T00:29:40.896Z,11.68
2022-09-17T00:32:44.953Z,11.73
2022-09-17T00:36:00.907Z,11.73
2022-09-17T00:39:07.974Z,11.73
2022-09-17T00:42:11.039Z,11.72
2022-09-17T00:45:14.021Z,11.73
2022-09-17T00:48:18.759Z,11.73
2022-09-17T00:51:26.565Z,11.69
2022-09-17T00:54:30.678Z,11.80
2022-09-17T00:57:33.470Z,11.84
2022-09-17T01:00:37.696Z,11.87
2022-09-17T01:03:41.879Z,11.88
2022-09-17T01:06:56.774Z,11.93
2022-09-17T01:10:07.678Z,11.93
2022-09-17T01:13:22.758Z,11.98
2022-09-17T01:16:37.114Z,11.99
2022-09-17T01:20:16.647Z,11.95
2022-09-17T01:23:41.573Z,12.00
2022-09-17T01:27:34.934Z,12.02
2022-09-17T01:31:28.377Z,12.03
2022-09-17T01:34:41.414Z,12.09
2022-09-17T01:37:51.768Z,12.10
2022-09-17T01:41:07.770Z,12.10
2022-09-17T01:44:16.450Z,12.06
2022-09-17T01:47:23.903Z,11.98
2022-09-17T01:50:32.107Z,11.88
2022-09-17T01:53:42.236Z,11.85
2022-09-17T01:56:52.019Z,11.85
2022-09-17T02:00:00.022Z,11.87
2022-09-17T02:03:07.522Z,11.91
2022-09-17T02:06:17.382Z,11.94
2022-09-17T02:09:26.275Z,11.98
2022-09-17T02:12:34.609Z,11.99
2022-09-17T02:15:43.815Z,12.02
2022-09-17T02:18:51.676Z,12.07
2022-09-17T02:22:04.693Z,12.07
2022-09-17T02:25:11.642Z,12.07
2022-09-17T02:28:24.136Z,12.07
2022-09-17T02:31:27.792Z,12.02
2022-09-17T02:34:30.777Z,12.05
2022-09-17T02:37:35.233Z,12.09
2022-09-17T02:40:47.766Z,12.03
2022-09-17T02:44:01.204Z,12.02
2022-09-17T02:47:20.676Z,12.03
2022-09-17T02:50:31.580Z,12.01
2022-09-17T02:53:41.677Z,12.09
2022-09-17T02:56:52.042Z,12.07
2022-09-17T03:00:03.806Z,12.10
2022-09-17T03:03:11.436Z,12.12
2022-09-17T03:06:15.813Z,12.09
2022-09-17T03:09:19.812Z,12.04
2022-09-17T03:12:25.868Z,12.03
2022-09-17T03:15:28.923Z,12.07
2022-09-17T03:18:31.957Z,12.06
2022-09-17T03:21:35.217Z,12.06
2022-09-17T03:24:39.324Z,12.05
2022-09-17T03:27:42.113Z,12.05
2022-09-17T03:30:45.114Z,12.05
2022-09-17T03:33:48.494Z,12.06
2022-09-17T03:36:51.757Z,12.03
2022-09-17T03:39:55.808Z,12.00
2022-09-17T03:42:58.595Z,12.03
2022-09-17T03:46:01.481Z,12.01
2022-09-17T03:49:04.911Z,11.98
2022-09-17T03:52:08.027Z,11.96
2022-09-17T03:55:12.447Z,11.99
2022-09-17T03:58:15.539Z,11.76
2022-09-17T04:01:18.366Z,11.94
2022-09-17T04:04:21.269Z,11.97
2022-09-17T04:07:23.966Z,11.99
2022-09-17T04:10:28.436Z,11.99
2022-09-17T04:13:31.095Z,11.95
2022-09-17T04:16:34.227Z,11.94
2022-09-17T04:19:36.948Z,11.82
2022-09-17T04:22:39.948Z,11.85
2022-09-17T04:25:44.336Z,11.83
2022-09-17T04:28:47.034Z,11.84
2022-09-17T04:31:49.741Z,11.84
2022-09-17T04:34:52.868Z,11.89
2022-09-17T04:37:56.232Z,11.81
2022-09-17T04:41:00.512Z,11.77
2022-09-17T04:44:03.788Z,11.71
2022-09-17T04:47:06.996Z,11.63
2022-09-17T04:50:11.014Z,11.62
2022-09-17T04:53:13.685Z,11.50
2022-09-17T04:56:18.237Z,11.59
2022-09-17T04:59:21.265Z,11.58
2022-09-17T05:02:23.988Z,11.56
2022-09-17T05:05:27.226Z,11.53
2022-09-17T05:08:29.950Z,11.51
2022-09-17T05:11:34.643Z,11.50
2022-09-17T05:14:37.390Z,11.49
2022-09-17T05:17:40.414Z,11.48
2022-09-17T05:20:43.925Z,11.51
2022-09-17T05:23:46.597Z,11.54
2022-09-17T05:26:51.080Z,11.56
2022-09-17T05:29:53.729Z,11.59
2022-09-17T05:33:01.824Z,11.60
2022-09-17T05:36:04.941Z,11.58
2022-09-17T05:39:08.231Z,11.57
2022-09-17T05:42:12.260Z,11.59
2022-09-17T05:45:14.908Z,11.59
2022-09-17T05:48:18.086Z,11.61
2022-09-17T05:51:20.724Z,11.62
2022-09-17T05:54:23.996Z,11.62
2022-09-17T05:57:29.906Z,11.61
2022-09-17T06:00:32.926Z,11.62
2022-09-17T06:03:35.986Z,11.69
2022-09-17T06:06:39.213Z,11.74
2022-09-17T06:09:42.618Z,11.77
2022-09-17T06:12:47.086Z,11.73
2022-09-17T06:15:54.762Z,11.76
2022-09-17T06:18:57.713Z,11.74
2022-09-17T06:22:00.842Z,11.79
2022-09-17T06:25:04.133Z,11.80
2022-09-17T06:28:08.631Z,11.77
2022-09-17T06:31:13.243Z,11.78
2022-09-17T06:34:15.980Z,11.82
2022-09-17T06:37:18.670Z,11.94
2022-09-17T06:40:23.291Z,12.05
2022-09-17T06:43:28.069Z,12.24
2022-09-17T06:46:30.821Z,12.35
2022-09-17T06:49:33.613Z,12.40
2022-09-17T06:52:36.334Z,12.45
2022-09-17T06:55:39.323Z,12.44
2022-09-17T06:58:44.351Z,12.45
2022-09-17T07:01:48.607Z,12.50
2022-09-17T07:04:51.746Z,12.56
2022-09-17T07:07:54.776Z,12.59
2022-09-17T07:10:58.947Z,12.75
2022-09-17T07:14:03.599Z,13.00
2022-09-17T07:17:07.289Z,13.16
2022-09-17T07:20:11.280Z,13.28
2022-09-17T07:23:13.907Z,13.44
2022-09-17T07:26:17.546Z,13.54
2022-09-17T07:29:23.656Z,13.58
2022-09-17T07:32:27.341Z,13.67
2022-09-17T07:35:29.987Z,13.69
2022-09-17T07:38:36.016Z,13.71
2022-09-17T07:41:38.849Z,13.68
2022-09-17T07:44:42.944Z,13.70
2022-09-17T07:47:45.620Z,13.71
2022-09-17T07:50:49.080Z,13.68
2022-09-17T07:53:52.762Z,13.87
2022-09-17T07:56:56.052Z,13.85
2022-09-17T08:00:00.063Z,14.02
2022-09-17T08:03:03.424Z,14.23
2022-09-17T08:06:08.181Z,14.44
2022-09-17T08:09:10.853Z,14.53
2022-09-17T08:12:13.815Z,14.69
2022-09-17T08:15:19.588Z,14.75
2022-09-17T08:18:22.400Z,14.81
2022-09-17T08:21:25.923Z,14.84
2022-09-17T08:24:28.636Z,14.82
2022-09-17T08:27:32.101Z,14.88
2022-09-17T08:30:36.167Z,14.86
2022-09-17T08:33:40.644Z,14.85
2022-09-17T08:36:43.359Z,14.94
2022-09-17T08:39:45.984Z,14.98
2022-09-17T08:42:57.402Z,15.16
2022-09-17T08:46:01.704Z,15.32
2022-09-17T08:49:15.408Z,15.07
2022-09-17T08:52:47.265Z,15.23
2022-09-17T08:55:56.959Z,15.32
2022-09-17T08:59:09.386Z,15.40
2022-09-17T09:02:24.198Z,15.14
2022-09-17T09:05:33.248Z,15.28
2022-09-17T09:08:40.926Z,15.25
2022-09-17T09:11:45.048Z,15.25
2022-09-17T09:14:52.038Z,15.19
2022-09-17T09:18:00.771Z,15.52
2022-09-17T09:21:17.531Z,16.04
2022-09-17T09:24:26.191Z,16.51
2022-09-17T09:27:30.294Z,16.31
2022-09-17T09:30:50.932Z,16.42
2022-09-17T09:33:55.167Z,16.48
2022-09-17T09:37:17.223Z,16.26
2022-09-17T09:40:31.634Z,15.85
2022-09-17T09:43:59.910Z,15.31
2022-09-17T09:47:27.861Z,14.68
2022-09-17T09:51:05.574Z,14.44
2022-09-17T09:54:26.782Z,14.21
2022-09-17T09:57:40.744Z,14.27
2022-09-17T10:00:43.860Z,14.40
2022-09-17T10:03:47.055Z,14.67
2022-09-17T10:06:53.401Z,14.74
2022-09-17T10:10:10.021Z,14.97
2022-09-17T10:13:15.149Z,15.11
2022-09-17T10:16:20.560Z,15.32
2022-09-17T10:19:25.766Z,15.64
2022-09-17T10:22:32.805Z,15.94
2022-09-17T10:25:36.352Z,16.23
2022-09-17T10:28:47.865Z,16.55
2022-09-17T10:31:52.715Z,16.63
2022-09-17T10:35:00.396Z,16.62
2022-09-17T10:38:04.416Z,16.65
2022-09-17T10:41:13.579Z,16.79
2022-09-17T10:44:19.096Z,16.90
2022-09-17T10:47:25.437Z,16.64
2022-09-17T10:50:30.199Z,16.50
2022-09-17T10:53:55.250Z,16.11
2022-09-17T10:57:01.649Z,16.17
2022-09-17T11:00:13.257Z,16.51
2022-09-17T11:03:46.943Z,16.76
2022-09-17T11:07:01.641Z,16.81
2022-09-17T11:10:12.407Z,16.52
2022-09-17T11:13:25.085Z,16.85
2022-09-17T11:16:40.227Z,16.57
2022-09-17T11:19:50.975Z,16.68
2022-09-17T11:23:07.357Z,16.76
2022-09-17T11:26:25.042Z,16.93
2022-09-17T11:29:45.577Z,17.03
2022-09-17T11:33:16.609Z,17.17
2022-09-17T11:36:25.382Z,17.43
2022-09-17T11:39:34.214Z,17.71
2022-09-17T11:42:45.711Z,17.66
2022-09-17T11:45:57.744Z,17.51
2022-09-17T11:49:05.087Z,17.35
2022-09-17T11:52:13.035Z,17.69
2022-09-17T11:55:23.939Z,17.91
2022-09-17T11:58:36.484Z,18.06
2022-09-17T12:01:47.170Z,18.18
2022-09-17T12:04:57.282Z,18.39
2022-09-17T12:08:12.478Z,18.66
2022-09-17T12:11:22.512Z,18.27
2022-09-17T12:14:32.305Z,17.89
2022-09-17T12:17:40.853Z,17.70
2022-09-17T12:20:48.075Z,17.44
2022-09-17T12:23:55.822Z,17.16
2022-09-17T12:27:07.409Z,16.92
2022-09-17T12:30:16.482Z,16.69
2022-09-17T12:33:33.600Z,16.46
2022-09-17T12:36:50.217Z,16.40
2022-09-17T12:40:19.517Z,16.33
2022-09-17T12:43:41.579Z,16.26
2022-09-17T12:47:01.639Z,16.11
2022-09-17T12:50:15.863Z,16.44
2022-09-17T12:53:27.809Z,16.87
2022-09-17T12:56:45.818Z,17.32
2022-09-17T12:59:53.754Z,17.87
2022-09-17T13:03:05.925Z,18.24
2022-09-17T13:06:26.465Z,18.37
2022-09-17T13:09:57.544Z,18.20
2022-09-17T13:13:10.676Z,18.15
2022-09-17T13:16:20.097Z,18.24
2022-09-17T13:19:35.173Z,18.12
2022-09-17T13:22:46.580Z,17.95
2022-09-17T13:26:01.997Z,17.27
2022-09-17T13:29:11.119Z,16.60
2022-09-17T13:32:53.987Z,15.99
2022-09-17T13:36:00.885Z,15.65
2022-09-17T13:39:12.879Z,15.71
2022-09-17T13:42:21.104Z,15.67
2022-09-17T13:45:25.455Z,15.57
2022-09-17T13:48:30.583Z,15.56
2022-09-17T13:51:54.741Z,15.73
2022-09-17T13:54:57.830Z,16.02
2022-09-17T13:58:01.795Z,15.83
2022-09-17T14:01:06.365Z,15.73
2022-09-17T14:04:49.492Z,15.52
2022-09-17T14:08:07.061Z,15.44
2022-09-17T14:11:38.186Z,15.80
2022-09-17T14:14:51.836Z,16.31
2022-09-17T14:17:54.657Z,16.58
2022-09-17T14:21:12.642Z,16.78
2022-09-17T14:24:23.651Z,16.79
2022-09-17T14:27:51.779Z,16.85
2022-09-17T14:30:54.601Z,16.99
2022-09-17T14:33:57.577Z,17.06
2022-09-17T14:37:00.890Z,16.89
2022-09-17T14:40:09.901Z,16.91
2022-09-17T14:43:20.989Z,16.98
2022-09-17T14:46:25.672Z,17.27
2022-09-17T14:49:30.531Z,17.66
2022-09-17T14:52:33.923Z,17.92
2022-09-17T14:55:42.041Z,18.17
2022-09-17T14:58:49.089Z,18.22
2022-09-17T15:01:51.999Z,18.21
2022-09-17T15:04:55.009Z,18.14
2022-09-17T15:08:16.087Z,18.11
2022-09-17T15:11:21.011Z,17.99
2022-09-17T15:14:28.377Z,17.76
2022-09-17T15:17:33.400Z,17.67
2022-09-17T15:20:36.412Z,17.54
2022-09-17T15:23:39.611Z,17.48
2022-09-17T15:26:46.275Z,17.20
2022-09-17T15:29:52.240Z,17.18
2022-09-17T15:32:56.861Z,17.13
2022-09-17T15:36:02.011Z,17.02
2022-09-17T15:39:33.109Z,16.90
2022-09-17T15:42:35.830Z,16.71
2022-09-17T15:45:39.898Z,16.56
2022-09-17T15:48:42.557Z,15.96
2022-09-17T15:51:45.214Z,14.93
2022-09-17T15:54:50.205Z,14.28
2022-09-17T15:57:53.231Z,14.05
2022-09-17T16:01:41.198Z,13.97
2022-09-17T16:04:44.364Z,13.91
2022-09-17T16:07:47.796Z,13.91
2022-09-17T16:10:52.952Z,13.98
2022-09-17T16:13:58.362Z,14.00
2022-09-17T16:17:11.011Z,14.05
2022-09-17T16:20:18.455Z,14.20
2022-09-17T16:23:21.622Z,14.24
2022-09-17T16:26:30.870Z,14.23
2022-09-17T16:29:33.838Z,14.35
2022-09-17T16:32:36.571Z,14.24
2022-09-17T16:35:39.550Z,14.13
2022-09-17T16:38:42.219Z,14.12
2022-09-17T16:41:46.324Z,14.14
2022-09-17T16:44:49.101Z,14.17
2022-09-17T16:47:51.725Z,14.21
2022-09-17T16:50:54.423Z,14.23
2022-09-17T16:53:57.726Z,14.24
2022-09-17T16:57:02.235Z,14.26
2022-09-17T17:00:07.615Z,14.26
2022-09-17T17:03:12.905Z,14.27
2022-09-17T17:06:16.796Z,14.22
2022-09-17T17:09:19.464Z,14.21
2022-09-17T17:12:23.572Z,14.33
2022-09-17T17:15:27.098Z,13.68
2022-09-17T17:18:30.412Z,12.78
2022-09-17T17:21:33.016Z,12.46
2022-09-17T17:24:35.630Z,12.12
2022-09-17T17:27:40.202Z,11.59
2022-09-17T17:30:42.958Z,11.41
2022-09-17T17:33:46.551Z,11.35
2022-09-17T17:36:49.836Z,11.41
2022-09-17T17:39:52.618Z,11.25
2022-09-17T17:42:56.673Z,11.19
2022-09-17T17:45:59.356Z,11.16
2022-09-17T17:49:02.133Z,11.20
2022-09-17T17:52:04.807Z,11.11
2022-09-17T17:55:08.677Z,11.13
2022-09-17T17:58:12.655Z,11.17
2022-09-17T18:01:17.570Z,11.36
2022-09-17T18:04:20.240Z,11.26
2022-09-17T18:07:22.907Z,11.29
2022-09-17T18:10:25.684Z,11.36
2022-09-17T18:13:29.790Z,11.39
2022-09-17T18:16:33.533Z,11.58
2022-09-17T18:19:36.193Z,11.54
2022-09-17T18:22:38.863Z,11.55
2022-09-17T18:25:41.551Z,11.59
2022-09-17T18:28:45.994Z,11.53
2022-09-17T18:31:48.982Z,11.49
2022-09-17T18:34:52.199Z,11.45
2022-09-17T18:37:54.885Z,11.38
2022-09-17T18:40:58.209Z,11.29
2022-09-17T18:44:02.577Z,11.26
2022-09-17T18:47:05.443Z,11.23
2022-09-17T18:50:08.850Z,11.16
2022-09-17T18:53:11.581Z,11.10
2022-09-17T18:56:17.889Z,10.98
2022-09-17T18:59:21.875Z,10.88
2022-09-17T19:02:24.655Z,10.82
2022-09-17T19:05:27.319Z,10.76
2022-09-17T19:08:30.121Z,10.68
2022-09-17T19:11:32.967Z,10.63
2022-09-17T19:14:37.237Z,10.60
2022-09-17T19:17:39.864Z,10.58
2022-09-17T19:20:42.501Z,10.51
2022-09-17T19:23:46.661Z,10.52
2022-09-17T19:26:51.038Z,10.51
2022-09-17T19:29:57.752Z,10.48
2022-09-17T19:33:01.398Z,10.55
2022-09-17T19:36:06.433Z,10.59
2022-09-17T19:39:09.123Z,10.58
2022-09-17T19:42:12.020Z,10.55
2022-09-17T19:45:16.399Z,10.48
2022-09-17T19:48:23.134Z,10.41
2022-09-17T19:51:30.232Z,10.37
2022-09-17T19:54:32.865Z,10.34
2022-09-17T19:57:36.086Z,10.32
2022-09-17T20:00:40.381Z,10.27
2022-09-17T20:03:45.013Z,10.35
2022-09-17T20:06:47.703Z,10.41
2022-09-17T20:09:51.121Z,10.43
2022-09-17T20:12:53.795Z,10.43
2022-09-17T20:16:04.209Z,10.47
2022-09-17T20:19:07.947Z,10.60
2022-09-17T20:22:10.650Z,10.62
2022-09-17T20:25:13.726Z,10.66
2022-09-17T20:28:16.737Z,10.76
2022-09-17T20:31:23.690Z,10.74
2022-09-17T20:34:26.824Z,10.69
2022-09-17T20:38:16.070Z,10.67
2022-09-17T20:40:53.067Z,10.49
2022-09-17T20:43:55.948Z,10.40
2022-09-17T20:47:01.957Z,10.22
2022-09-17T20:50:04.969Z,10.25
2022-09-17T20:53:08.041Z,10.23
2022-09-17T20:56:12.658Z,10.11
2022-09-17T20:59:19.032Z,10.17
2022-09-17T21:02:23.630Z,10.14
2022-09-17T21:05:26.326Z,10.12
2022-09-17T21:08:29.807Z,10.14
2022-09-17T21:11:32.851Z,10.16
2022-09-17T21:14:35.624Z,10.18
2022-09-17T21:17:40.707Z,10.22
2022-09-17T21:20:43.446Z,10.26
2022-09-17T21:23:46.150Z,10.18
2022-09-17T21:26:49.722Z,10.17
2022-09-17T21:29:52.361Z,10.12
2022-09-17T21:32:57.565Z,10.06
2022-09-17T21:36:05.600Z,10.07
2022-09-17T21:39:12.379Z,10.01
2022-09-17T21:42:15.042Z,10.01
2022-09-17T21:45:17.825Z,10.02
2022-09-17T21:48:22.229Z,9.98
2022-09-17T21:51:30.270Z,10.03
2022-09-17T21:54:33.054Z,9.98
2022-09-17T21:57:36.377Z,10.05
2022-09-17T22:00:39.035Z,10.08
2022-09-17T22:03:45.204Z,10.12
2022-09-17T22:06:49.325Z,10.13
2022-09-17T22:09:52.397Z,10.23
2022-09-17T22:12:55.023Z,10.31
2022-09-17T22:15:59.037Z,10.26
2022-09-17T22:19:04.011Z,10.23
2022-09-17T22:22:06.681Z,10.25
2022-09-17T22:25:11.029Z,10.22
2022-09-17T22:28:21.287Z,10.19
2022-09-17T22:31:24.921Z,10.29
2022-09-17T22:34:29.806Z,10.38
2022-09-17T22:37:32.529Z,10.48
2022-09-17T22:40:37.142Z,10.52
2022-09-17T22:43:40.184Z,10.64
2022-09-17T22:46:44.048Z,10.73
2022-09-17T22:49:48.087Z,10.78
2022-09-17T22:52:51.148Z,10.75
2022-09-17T22:55:57.505Z,10.71
2022-09-17T22:59:00.467Z,10.73
2022-09-17T23:02:03.253Z,10.79
2022-09-17T23:05:08.336Z,10.85
2022-09-17T23:08:11.069Z,10.77
2022-09-17T23:11:18.710Z,10.79
2022-09-17T23:14:21.779Z,10.87
2022-09-17T23:17:28.719Z,10.87
2022-09-17T23:20:35.920Z,10.88
2022-09-17T23:23:38.604Z,10.86
2022-09-17T23:26:41.688Z,10.87
2022-09-17T23:29:44.370Z,10.92
2022-09-17T23:32:47.508Z,10.97
2022-09-17T23:35:52.509Z,11.01
2022-09-17T23:38:57.645Z,11.02
2022-09-17T23:42:00.331Z,11.06
2022-09-17T23:45:03.497Z,11.05
2022-09-17T23:48:06.172Z,11.08
2022-09-17T23:51:11.213Z,11.06
2022-09-17T23:54:14.003Z,11.07
2022-09-17T23:57:16.770Z,11.13
